Time;durP1;ratioP1;P1;durP2;ratioP2;P2;SDS_P1;SDS_P2;PMS_P1;PMS_P2;Temp;Humidity;BMP_temperature;BMP_pressure;BME280_temperature;BME280_humidity;BME280_pressure;Samples;Min_cycle;Max_cycle;Signal;HPM_P1;HPM_P2
2022/11/25 00:01:24;;;;;;;15.45;4.38;;;7.20;99.90;;;;;;5094189;28;20048;-62
2022/11/25 00:03:51;;;;;;;9.68;3.53;;;7.10;99.90;;;;;;5093152;28;20055;-63
2022/11/25 00:06:21;;;;;;;16.48;4.57;;;7.20;99.90;;;;;;5092763;28;20058;-63
2022/11/25 00:08:49;;;;;;;15.15;3.90;;;7.20;99.90;;;;;;5094819;28;20048;-63
2022/11/25 00:11:17;;;;;;;15.55;3.22;;;7.70;99.90;;;;;;5094481;28;20077;-63
2022/11/25 00:13:45;;;;;;;12.25;4.20;;;7.20;99.90;;;;;;5092761;28;20476;-63
2022/11/25 00:16:16;;;;;;;15.23;4.88;;;7.20;99.90;;;;;;5094386;28;20067;-62
2022/11/25 00:18:44;;;;;;;10.65;3.42;;;7.20;99.90;;;;;;5093399;28;20098;-63
2022/11/25 00:21:13;;;;;;;14.43;4.28;;;7.20;99.90;;;;;;5090418;28;20044;-62
2022/11/25 00:23:40;;;;;;;13.75;3.35;;;7.30;99.90;;;;;;5092750;28;20048;-63
2022/11/25 00:26:09;;;;;;;14.45;3.80;;;7.20;99.90;;;;;;5094390;28;20055;-63
2022/11/25 00:28:36;;;;;;;15.02;4.03;;;7.30;99.90;;;;;;5092575;28;20056;-61
2022/11/25 00:31:08;;;;;;;12.63;3.85;;;7.30;99.90;;;;;;5093181;28;20044;-62
2022/11/25 00:33:36;;;;;;;15.57;4.00;;;7.30;99.90;;;;;;5092393;28;20044;-62
2022/11/25 00:36:04;;;;;;;16.23;4.10;;;7.30;99.90;;;;;;5092385;28;20052;-64
2022/11/25 00:38:31;;;;;;;9.50;3.67;;;7.30;99.90;;;;;;5092796;28;20048;-63
2022/11/25 00:46:24;;;;;;;16.70;4.55;;;7.40;99.90;;;;;;5092592;28;20123;-63
2022/11/25 00:48:52;;;;;;;17.13;4.15;;;7.50;99.90;;;;;;5092305;28;20055;-63
2022/11/25 00:51:19;;;;;;;17.52;5.13;;;7.50;99.90;;;;;;5093564;28;20121;-64
2022/11/25 00:53:46;;;;;;;11.95;3.90;;;7.40;99.90;;;;;;5092406;28;20044;-63
2022/11/25 00:56:13;;;;;;;17.25;4.05;;;7.40;99.90;;;;;;5091933;28;20450;-62
2022/11/25 00:58:40;;;;;;;13.38;3.53;;;7.40;99.90;;;;;;5093784;28;20066;-63
2022/11/25 01:01:07;;;;;;;10.70;4.32;;;7.30;99.90;;;;;;5092003;28;20040;-63
2022/11/25 01:03:35;;;;;;;12.27;3.92;;;7.30;99.90;;;;;;5091721;28;20051;-62
2022/11/25 01:06:04;;;;;;;16.25;4.45;;;7.30;99.90;;;;;;5091849;28;20071;-62
2022/11/25 01:08:32;;;;;;;15.57;5.13;;;7.30;99.90;;;;;;5093552;28;20055;-63
2022/11/25 01:10:59;;;;;;;15.10;4.45;;;7.30;99.90;;;;;;5091815;28;20044;-63
2022/11/25 01:13:26;;;;;;;18.33;4.43;;;7.20;99.90;;;;;;5093238;28;20044;-63
2022/11/25 01:15:53;;;;;;;9.70;4.20;;;7.20;99.90;;;;;;5093331;28;20044;-63
2022/11/25 01:18:20;;;;;;;14.27;4.30;;;7.20;99.90;;;;;;5091498;28;20097;-63
2022/11/25 01:20:47;;;;;;;14.63;4.30;;;7.20;99.90;;;;;;5093184;28;20454;-62
2022/11/25 01:23:15;;;;;;;12.20;3.90;;;7.20;99.90;;;;;;5090752;28;20475;-62
2022/11/25 01:25:42;;;;;;;9.60;4.00;;;7.20;99.90;;;;;;5092450;28;20629;-63
2022/11/25 01:28:09;;;;;;;14.20;4.53;;;7.20;99.90;;;;;;5091909;28;20404;-63
2022/11/25 01:30:36;;;;;;;13.48;5.30;;;7.20;99.90;;;;;;5091051;28;21016;-62
2022/11/25 01:33:03;;;;;;;13.23;4.72;;;7.20;99.90;;;;;;5091362;28;20052;-62
2022/11/25 01:35:29;;;;;;;15.43;5.03;;;7.10;99.90;;;;;;5092953;28;20052;-63
2022/11/25 01:37:56;;;;;;;16.25;4.30;;;7.10;99.90;;;;;;5091287;28;20117;-63
2022/11/25 01:40:25;;;;;;;13.80;3.97;;;7.10;99.90;;;;;;5091478;28;20090;-63
2022/11/25 01:42:51;;;;;;;11.98;3.95;;;7.00;99.90;;;;;;5090689;28;20491;-63
2022/11/25 01:45:34;;;;;;;16.38;4.72;;;7.00;99.90;;;;;;5090716;28;20123;-63
2022/11/25 01:48:06;;;;;;;20.20;4.68;;;7.00;99.90;;;;;;5092841;28;20490;-63
2022/11/25 01:50:34;;;;;;;14.63;5.15;;;7.00;99.90;;;;;;5091582;28;20048;-62
2022/11/25 01:53:07;;;;;;;14.48;5.10;;;7.00;99.90;;;;;;5090627;28;20067;-62
2022/11/25 01:55:38;;;;;;;11.23;4.55;;;7.00;99.90;;;;;;5091650;28;20048;-63
2022/11/25 01:58:09;;;;;;;14.23;4.68;;;7.00;99.90;;;;;;5091219;28;20048;-63
2022/11/25 02:00:37;;;;;;;17.27;5.80;;;7.00;99.90;;;;;;5092362;28;20048;-62
2022/11/25 02:03:06;;;;;;;14.52;4.88;;;7.10;99.90;;;;;;5091104;28;20055;-62
2022/11/25 02:05:39;;;;;;;16.27;4.82;;;7.10;99.90;;;;;;5092669;28;20450;-63
2022/11/25 02:08:07;;;;;;;17.08;4.97;;;7.10;99.90;;;;;;5088940;28;20380;-64
2022/11/25 02:10:36;;;;;;;12.13;4.50;;;7.10;99.90;;;;;;5091259;28;20055;-63
2022/11/25 02:13:03;;;;;;;19.45;5.97;;;7.20;99.90;;;;;;5090613;28;20048;-63
2022/11/25 02:15:33;;;;;;;17.13;5.45;;;7.10;99.90;;;;;;5090932;28;20101;-64
2022/11/25 02:18:00;;;;;;;12.35;4.68;;;7.20;99.90;;;;;;5092246;28;20123;-62
2022/11/25 02:20:28;;;;;;;11.35;4.97;;;7.20;99.90;;;;;;5088171;28;20059;-63
2022/11/25 02:23:02;;;;;;;14.05;4.60;;;7.20;99.90;;;;;;5090616;28;20089;-61
2022/11/25 02:25:32;;;;;;;21.25;5.85;;;7.20;99.90;;;;;;5092470;28;20043;-63
2022/11/25 02:28:02;;;;;;;15.57;5.03;;;7.20;99.90;;;;;;5089306;28;20385;-63
2022/11/25 02:30:29;;;;;;;17.60;5.55;;;7.20;99.90;;;;;;5092535;28;20447;-63
2022/11/25 02:32:58;;;;;;;16.58;5.32;;;7.20;99.90;;;;;;5090841;28;20446;-62
2022/11/25 02:35:31;;;;;;;16.35;4.95;;;7.20;99.90;;;;;;5090390;28;20044;-63
2022/11/25 02:38:03;;;;;;;18.75;5.15;;;7.20;99.90;;;;;;5092171;28;20059;-63
2022/11/25 02:40:34;;;;;;;16.38;4.50;;;7.10;99.90;;;;;;5091870;28;20040;-63
2022/11/25 02:43:00;;;;;;;13.85;5.40;;;7.20;99.90;;;;;;5092909;28;20499;-63
2022/11/25 02:45:36;;;;;;;17.70;5.45;;;7.20;99.90;;;;;;5096080;28;20051;-63
2022/11/25 02:48:04;;;;;;;13.05;5.03;;;7.10;99.90;;;;;;5094262;28;20385;-63
2022/11/25 02:50:31;;;;;;;17.85;5.03;;;7.10;99.90;;;;;;5096290;28;20044;-62
2022/11/25 02:52:58;;;;;;;18.33;6.18;;;7.20;99.90;;;;;;5094191;28;20044;-63
2022/11/25 02:55:24;;;;;;;15.40;5.40;;;7.20;99.90;;;;;;5095244;28;20094;-63
2022/11/25 02:57:53;;;;;;;15.27;5.20;;;7.10;99.90;;;;;;5092312;28;20054;-63
2022/11/25 03:00:20;;;;;;;17.27;5.40;;;7.20;99.90;;;;;;5094536;28;20059;-62
2022/11/25 03:02:48;;;;;;;14.85;4.93;;;7.20;99.90;;;;;;5094202;28;20463;-63
2022/11/25 03:05:15;;;;;;;19.88;5.90;;;7.20;99.90;;;;;;5094404;28;20044;-63
2022/11/25 03:07:42;;;;;;;17.67;5.47;;;7.20;99.90;;;;;;5094590;28;20071;-63
2022/11/25 03:10:09;;;;;;;18.58;5.38;;;7.20;99.90;;;;;;5095010;28;20044;-63
2022/11/25 03:12:36;;;;;;;19.40;5.82;;;7.30;99.90;;;;;;5094442;28;20056;-63
2022/11/25 03:15:05;;;;;;;15.70;4.93;;;7.20;99.90;;;;;;5094168;28;20044;-63
2022/11/25 03:17:32;;;;;;;13.75;5.70;;;7.30;99.90;;;;;;5093889;28;20048;-63
2022/11/25 03:19:59;;;;;;;14.40;5.32;;;7.30;99.90;;;;;;5094240;28;20048;-63
2022/11/25 03:22:26;;;;;;;20.48;5.85;;;7.30;99.90;;;;;;5094161;28;20131;-63
2022/11/25 03:24:53;;;;;;;15.77;5.93;;;7.40;99.90;;;;;;5094857;28;20442;-63
2022/11/25 03:27:20;;;;;;;17.77;6.53;;;7.00;99.90;;;;;;5095257;28;20055;-63
2022/11/25 03:29:46;;;;;;;16.38;6.43;;;7.40;99.90;;;;;;5093940;28;20052;-63
2022/11/25 03:32:15;;;;;;;13.88;5.93;;;7.40;99.90;;;;;;5094560;28;20085;-63
2022/11/25 03:34:42;;;;;;;20.98;7.07;;;7.40;99.90;;;;;;5093913;28;20048;-64
2022/11/25 03:37:09;;;;;;;14.82;5.80;;;7.40;99.90;;;;;;5095045;28;20060;-63
2022/11/25 03:39:36;;;;;;;18.10;6.95;;;7.50;99.90;;;;;;5094809;28;20165;-64
2022/11/25 03:42:03;;;;;;;17.25;6.90;;;7.50;99.90;;;;;;5092508;28;20067;-61
2022/11/25 03:44:30;;;;;;;14.63;7.32;;;7.50;99.90;;;;;;5092880;28;20434;-63
2022/11/25 03:46:57;;;;;;;12.13;5.25;;;7.50;99.90;;;;;;5093981;28;20056;-63
2022/11/25 03:49:25;;;;;;;15.40;6.03;;;7.60;99.90;;;;;;5093280;28;20047;-63
2022/11/25 03:51:52;;;;;;;13.55;6.38;;;7.60;99.90;;;;;;5094307;28;20048;-62
2022/11/25 03:54:19;;;;;;;15.57;6.10;;;7.60;99.90;;;;;;5093384;28;20412;-64
2022/11/25 03:56:46;;;;;;;18.92;7.13;;;7.60;99.90;;;;;;5093589;28;20047;-63
2022/11/25 03:59:13;;;;;;;16.08;6.75;;;7.60;99.90;;;;;;5092665;28;20093;-64
2022/11/25 04:01:40;;;;;;;21.45;7.50;;;7.60;99.90;;;;;;5094836;28;20052;-63
2022/11/25 04:04:07;;;;;;;22.20;7.40;;;7.50;99.90;;;;;;5093738;28;20048;-63
2022/11/25 04:06:38;;;;;;;21.60;7.53;;;7.50;99.90;;;;;;5093208;28;20101;-63
2022/11/25 04:09:05;;;;;;;21.35;7.68;;;7.50;99.90;;;;;;5092007;28;20048;-63
2022/11/25 04:14:12;;;;;;;;;;;7.50;99.90;;;;;;5094034;28;20047;-65
2022/11/25 04:16:39;;;;;;;14.02;7.30;;;7.50;99.90;;;;;;5094479;28;19981;-64
2022/11/25 04:19:06;;;;;;;20.95;8.80;;;7.50;99.90;;;;;;5094361;28;20048;-63
2022/11/25 04:21:34;;;;;;;22.58;9.88;;;7.50;99.90;;;;;;5092562;28;20525;-63
2022/11/25 04:24:02;;;;;;;17.73;7.07;;;7.50;99.90;;;;;;5094215;28;20101;-63
2022/11/25 04:26:29;;;;;;;19.98;7.80;;;7.50;99.90;;;;;;5093550;28;20522;-63
2022/11/25 04:28:55;;;;;;;20.55;9.30;;;7.50;99.90;;;;;;5093134;28;20056;-63
2022/11/25 04:31:23;;;;;;;18.25;8.63;;;7.50;99.90;;;;;;5094132;28;20052;-63
2022/11/25 04:33:50;;;;;;;25.45;9.35;;;7.50;99.90;;;;;;5093368;28;20764;-63
2022/11/25 04:36:16;;;;;;;22.77;8.88;;;7.50;99.90;;;;;;5091792;28;20545;-63
2022/11/25 04:38:45;;;;;;;22.55;8.90;;;7.50;99.90;;;;;;5094128;28;20139;-63
2022/11/25 04:41:12;;;;;;;28.63;9.40;;;7.50;99.90;;;;;;5090266;28;20492;-64
2022/11/25 04:43:39;;;;;;;20.48;9.40;;;7.50;99.90;;;;;;5092365;28;20509;-64
2022/11/25 04:46:06;;;;;;;19.77;9.15;;;7.50;99.90;;;;;;5090480;28;20044;-62
2022/11/25 04:48:33;;;;;;;22.63;9.27;;;7.50;99.90;;;;;;5092156;28;20060;-62
2022/11/25 04:50:59;;;;;;;18.05;8.48;;;7.50;99.90;;;;;;5093697;28;20510;-63
2022/11/25 04:53:26;;;;;;;18.33;8.30;;;7.50;99.90;;;;;;5092534;28;20732;-63
2022/11/25 04:55:54;;;;;;;22.13;8.48;;;7.50;99.90;;;;;;5093017;28;20491;-63
2022/11/25 05:01:02;;;;;;;23.88;9.13;;;7.60;99.90;;;;;;5091613;28;20039;-63
2022/11/25 05:03:29;;;;;;;19.88;8.98;;;7.60;99.90;;;;;;5091582;28;20118;-63
2022/11/25 05:05:56;;;;;;;20.60;9.50;;;7.60;99.90;;;;;;5092794;28;20043;-63
2022/11/25 05:08:23;;;;;;;29.65;9.80;;;7.60;99.90;;;;;;5093259;28;20052;-64
2022/11/25 05:10:50;;;;;;;27.20;9.30;;;7.60;99.90;;;;;;5091842;28;20488;-62
2022/11/25 05:13:18;;;;;;;23.20;9.50;;;7.60;99.90;;;;;;5092062;28;20097;-63
2022/11/25 05:15:45;;;;;;;22.15;9.95;;;7.60;99.90;;;;;;5091410;28;20040;-62
2022/11/25 05:18:11;;;;;;;23.42;8.70;;;7.60;99.90;;;;;;5093174;28;20051;-62
2022/11/25 05:20:38;;;;;;;26.92;10.15;;;7.60;99.90;;;;;;5092289;28;20059;-62
2022/11/25 05:23:05;;;;;;;26.77;9.25;;;7.60;99.90;;;;;;5091128;28;20524;-62
2022/11/25 05:25:32;;;;;;;23.80;10.05;;;7.60;99.90;;;;;;5093080;28;20565;-62
2022/11/25 05:27:59;;;;;;;20.60;9.25;;;7.60;99.90;;;;;;5093025;28;20071;-62
2022/11/25 05:30:27;;;;;;;22.08;10.77;;;7.60;99.90;;;;;;5091320;28;20052;-63
2022/11/25 05:32:54;;;;;;;23.02;10.15;;;7.70;99.90;;;;;;5091968;28;20048;-64
2022/11/25 05:35:21;;;;;;;29.25;9.82;;;7.60;99.90;;;;;;5092994;28;20442;-64
2022/11/25 05:37:48;;;;;;;27.75;10.40;;;7.60;99.90;;;;;;5091409;28;20475;-63
2022/11/25 05:40:15;;;;;;;23.20;9.43;;;7.60;99.90;;;;;;5092748;28;20044;-63
2022/11/25 05:42:42;;;;;;;23.95;9.15;;;7.70;99.90;;;;;;5090677;28;20147;-62
2022/11/25 05:45:10;;;;;;;21.33;9.40;;;7.70;99.90;;;;;;5079971;28;20377;-63
2022/11/25 05:47:38;;;;;;;18.17;8.98;;;7.60;99.90;;;;;;5080795;28;20055;-63
2022/11/25 05:50:06;;;;;;;24.52;9.32;;;7.70;99.90;;;;;;5088783;28;20040;-63
2022/11/25 05:52:33;;;;;;;26.13;11.18;;;7.70;99.90;;;;;;5078215;28;20048;-64
2022/11/25 05:55:00;;;;;;;18.98;8.77;;;7.70;99.90;;;;;;5086967;28;20055;-63
2022/11/25 05:57:27;;;;;;;22.73;8.88;;;7.70;99.90;;;;;;5086226;28;20051;-63
2022/11/25 05:59:54;;;;;;;27.60;11.32;;;7.70;99.90;;;;;;5085895;28;20514;-64
2022/11/25 06:02:21;;;;;;;17.50;9.35;;;7.70;99.90;;;;;;5087636;28;20043;-64
2022/11/25 06:04:49;;;;;;;19.77;9.82;;;7.70;99.90;;;;;;5077091;28;20048;-64
2022/11/25 06:07:16;;;;;;;23.50;9.95;;;7.70;99.90;;;;;;5082297;28;20049;-64
2022/11/25 06:09:43;;;;;;;21.10;8.90;;;7.70;99.90;;;;;;5088047;28;20111;-64
2022/11/25 06:12:10;;;;;;;19.55;10.07;;;7.70;99.90;;;;;;5087443;28;20132;-63
2022/11/25 06:14:37;;;;;;;23.30;9.90;;;7.70;99.90;;;;;;5085359;28;20059;-64
2022/11/25 06:17:04;;;;;;;22.83;8.93;;;7.70;99.90;;;;;;5088835;28;20047;-63
2022/11/25 06:19:31;;;;;;;18.70;9.88;;;7.70;99.90;;;;;;5082892;28;20039;-64
2022/11/25 06:21:59;;;;;;;25.23;8.88;;;7.70;99.90;;;;;;5091297;28;20048;-64
2022/11/25 06:24:26;;;;;;;16.77;8.73;;;7.70;99.90;;;;;;5080865;28;20491;-64
2022/11/25 06:26:53;;;;;;;20.83;9.20;;;7.70;99.90;;;;;;5088266;28;20048;-64
2022/11/25 06:29:20;;;;;;;20.65;8.85;;;7.70;99.90;;;;;;5086238;28;20052;-63
2022/11/25 06:31:49;;;;;;;24.27;9.45;;;7.70;99.90;;;;;;5085614;28;20048;-63
2022/11/25 06:34:16;;;;;;;26.92;9.43;;;7.80;99.90;;;;;;5082673;28;20126;-63
2022/11/25 06:36:43;;;;;;;21.35;9.45;;;7.80;99.90;;;;;;5084247;28;20731;-63
2022/11/25 06:39:11;;;;;;;24.45;9.57;;;7.80;99.90;;;;;;5083366;28;20541;-64
2022/11/25 06:41:38;;;;;;;22.15;9.02;;;7.80;99.90;;;;;;5084592;28;20044;-63
2022/11/25 06:44:05;;;;;;;23.80;8.27;;;7.80;99.90;;;;;;5085822;28;20063;-64
2022/11/25 06:46:32;;;;;;;22.13;9.55;;;7.80;99.90;;;;;;5084955;28;20076;-64
2022/11/25 06:49:00;;;;;;;17.73;8.50;;;7.80;99.90;;;;;;5083391;28;20508;-63
2022/11/25 06:51:27;;;;;;;20.27;8.93;;;7.80;99.90;;;;;;5087434;28;20040;-64
2022/11/25 06:53:54;;;;;;;21.38;9.48;;;7.80;99.90;;;;;;5089090;28;20043;-63
2022/11/25 06:56:24;;;;;;;17.77;8.60;;;7.80;99.90;;;;;;5085522;28;20039;-63
2022/11/25 06:58:52;;;;;;;22.75;8.13;;;7.80;99.90;;;;;;5089764;28;20105;-63
2022/11/25 07:01:21;;;;;;;19.10;8.30;;;7.90;99.90;;;;;;5089699;28;20056;-63
2022/11/25 07:03:49;;;;;;;19.23;8.18;;;7.90;99.90;;;;;;5091130;28;20047;-64
2022/11/25 07:06:17;;;;;;;21.15;8.77;;;7.90;99.90;;;;;;5091136;28;20051;-63
2022/11/25 07:08:44;;;;;;;19.33;8.60;;;7.90;99.90;;;;;;5090912;28;20044;-63
2022/11/25 07:11:16;;;;;;;16.85;8.25;;;7.90;99.90;;;;;;5087432;28;20530;-62
2022/11/25 07:13:45;;;;;;;19.08;7.82;;;7.90;99.90;;;;;;5082197;28;20460;-64
2022/11/25 07:16:12;;;;;;;20.30;7.10;;;7.90;99.90;;;;;;5090444;28;20048;-63
2022/11/25 07:18:41;;;;;;;23.60;7.30;;;8.00;99.90;;;;;;5088890;28;20048;-62
2022/11/25 07:21:10;;;;;;;14.75;6.72;;;8.00;99.90;;;;;;5088846;28;20047;-63
2022/11/25 07:23:38;;;;;;;15.20;5.57;;;8.00;99.90;;;;;;5089360;28;20052;-64
2022/11/25 07:26:07;;;;;;;11.90;5.68;;;8.00;99.90;;;;;;5090433;28;20040;-63
2022/11/25 07:28:35;;;;;;;14.13;5.95;;;8.00;99.90;;;;;;5090841;28;20121;-64
2022/11/25 07:31:08;;;;;;;26.80;5.72;;;8.10;99.90;;;;;;5091942;28;20495;-64
2022/11/25 07:33:35;;;;;;;11.60;5.53;;;8.10;99.90;;;;;;5093927;28;20104;-63
2022/11/25 07:36:04;;;;;;;12.98;5.63;;;8.10;99.90;;;;;;5093809;28;20487;-64
2022/11/25 07:38:31;;;;;;;14.35;5.43;;;8.20;99.90;;;;;;5092696;28;20496;-63
2022/11/25 07:41:04;;;;;;;13.68;5.32;;;8.10;99.90;;;;;;5093604;28;20051;-63
2022/11/25 07:43:31;;;;;;;15.10;5.38;;;8.20;99.90;;;;;;5091393;28;20044;-63
2022/11/25 07:46:10;;;;;;;11.43;5.38;;;8.20;99.90;;;;;;5090864;28;20089;-63
2022/11/25 07:48:37;;;;;;;15.93;6.13;;;8.20;99.90;;;;;;5093947;28;20549;-63
2022/11/25 07:51:04;;;;;;;14.07;5.65;;;8.20;99.90;;;;;;5094160;28;20047;-64
2022/11/25 07:53:31;;;;;;;10.25;4.50;;;8.20;99.90;;;;;;5093525;28;20487;-63
2022/11/25 07:56:02;;;;;;;11.07;4.07;;;8.20;99.90;;;;;;5094173;28;20055;-63
2022/11/25 07:58:28;;;;;;;10.40;5.13;;;8.20;99.90;;;;;;5092991;28;20052;-63
2022/11/25 08:00:55;;;;;;;10.30;4.13;;;8.20;99.90;;;;;;5093315;28;20507;-63
2022/11/25 08:03:24;;;;;;;10.93;4.20;;;8.20;99.90;;;;;;5088741;28;20047;-63
2022/11/25 08:06:41;;;;;;;14.20;4.03;;;8.30;99.90;;;;;;5084162;28;20044;-63
2022/11/25 08:09:09;;;;;;;8.85;3.72;;;8.30;99.90;;;;;;5081846;28;20059;-64
2022/11/25 08:11:36;;;;;;;7.90;3.70;;;8.00;99.90;;;;;;5088035;28;20059;-63
2022/11/25 08:14:03;;;;;;;13.60;4.00;;;8.70;99.90;;;;;;5087579;28;20060;-63
2022/11/25 08:16:31;;;;;;;6.90;3.40;;;9.10;99.90;;;;;;5087669;28;20052;-64
2022/11/25 08:19:01;;;;;;;8.23;3.92;;;9.40;99.90;;;;;;5087280;28;20052;-64
2022/11/25 08:21:28;;;;;;;5.13;2.97;;;9.70;99.90;;;;;;5086801;28;20097;-64
2022/11/25 08:23:56;;;;;;;8.23;3.42;;;10.10;99.90;;;;;;5087275;28;20169;-66
2022/11/25 08:26:25;;;;;;;8.50;3.20;;;10.20;99.90;;;;;;5086369;28;20036;-64
2022/11/25 08:28:53;;;;;;;9.48;3.63;;;10.30;99.90;;;;;;5087863;28;20051;-63
2022/11/25 08:31:21;;;;;;;4.32;2.75;;;10.60;99.90;;;;;;5086510;28;20056;-64
2022/11/25 08:33:49;;;;;;;9.75;3.20;;;11.10;99.90;;;;;;5092017;28;20713;-63
2022/11/25 08:36:18;;;;;;;7.47;2.85;;;11.50;99.90;;;;;;5091794;28;20046;-64
2022/11/25 08:38:48;;;;;;;7.35;2.70;;;11.80;99.90;;;;;;5090830;28;20051;-63
2022/11/25 08:41:17;;;;;;;5.07;2.90;;;12.00;99.90;;;;;;5092379;28;20109;-65
2022/11/25 08:43:44;;;;;;;9.75;3.05;;;12.00;99.90;;;;;;5093570;28;20052;-64
2022/11/25 08:46:13;;;;;;;7.28;2.47;;;11.90;99.90;;;;;;5093391;28;20399;-64
2022/11/25 08:48:40;;;;;;;9.57;2.83;;;12.10;99.90;;;;;;5093115;28;20044;-63
2022/11/25 08:51:09;;;;;;;7.20;3.42;;;12.40;99.90;;;;;;5093322;28;20048;-64
2022/11/25 08:53:39;;;;;;;8.75;3.20;;;12.80;99.90;;;;;;5093240;28;20487;-65
2022/11/25 08:56:07;;;;;;;6.47;3.53;;;13.10;99.90;;;;;;5091827;28;20047;-64
2022/11/25 08:58:35;;;;;;;9.20;3.88;;;13.10;99.90;;;;;;5093352;28;20063;-64
2022/11/25 09:01:02;;;;;;;4.53;2.72;;;13.50;99.90;;;;;;5092582;28;20048;-63
2022/11/25 09:03:32;;;;;;;6.22;2.80;;;13.70;99.90;;;;;;5092048;28;20102;-64
2022/11/25 09:06:01;;;;;;;7.17;2.70;;;14.10;99.90;;;;;;5092061;28;20044;-65
2022/11/25 09:08:30;;;;;;;5.38;2.60;;;14.30;99.90;;;;;;5089546;28;20060;-64
2022/11/25 09:10:58;;;;;;;8.18;2.67;;;14.60;99.90;;;;;;5091538;28;20048;-64
2022/11/25 09:13:25;;;;;;;11.07;2.50;;;15.00;99.90;;;;;;5091644;28;20411;-64
2022/11/25 09:15:52;;;;;;;6.55;2.72;;;15.30;99.90;;;;;;5090863;28;20044;-65
2022/11/25 09:18:24;;;;;;;6.45;2.92;;;15.40;99.90;;;;;;5092028;28;20043;-65
2022/11/25 09:20:51;;;;;;;8.77;2.72;;;15.50;99.90;;;;;;5093140;28;20043;-65
2022/11/25 09:23:19;;;;;;;8.98;3.42;;;16.20;99.90;;;;;;5092226;28;20052;-64
2022/11/25 09:25:51;;;;;;;8.05;2.78;;;15.90;99.90;;;;;;5092540;28;20080;-65
2022/11/25 09:28:20;;;;;;;8.55;2.60;;;16.40;99.90;;;;;;5092079;28;20130;-65
2022/11/25 09:30:47;;;;;;;4.68;2.55;;;16.20;99.90;;;;;;5091199;28;20097;-63
2022/11/25 09:33:14;;;;;;;5.25;2.83;;;16.20;99.90;;;;;;5089210;28;20101;-64
2022/11/25 09:35:41;;;;;;;5.65;2.85;;;16.40;99.90;;;;;;5091495;28;20051;-64
2022/11/25 09:38:08;;;;;;;7.43;3.22;;;16.50;99.90;;;;;;5091200;28;20047;-63
2022/11/25 09:40:43;;;;;;;6.57;2.35;;;16.10;99.90;;;;;;5092634;28;20059;-63
2022/11/25 09:49:34;;;;;;;8.80;2.50;;;16.90;99.90;;;;;;5033272;28;20124;-63
2022/11/25 09:52:12;;;;;;;4.55;2.28;;;17.10;99.90;;;;;;5082825;28;20117;-64
2022/11/25 09:54:44;;;;;;;4.93;2.42;;;16.90;99.90;;;;;;5090971;28;20040;-63
2022/11/25 09:57:23;;;;;;;5.15;2.72;;;17.40;99.90;;;;;;5091698;28;20450;-64
2022/11/25 10:00:00;;;;;;;8.60;2.75;;;17.60;99.90;;;;;;5091943;28;20093;-64
2022/11/25 10:02:31;;;;;;;5.30;2.40;;;17.60;99.90;;;;;;5090345;28;20044;-63
2022/11/25 10:05:03;;;;;;;6.30;2.47;;;17.30;99.90;;;;;;5090612;28;20051;-64
2022/11/25 10:07:37;;;;;;;8.40;2.92;;;17.90;99.90;;;;;;5090580;28;20051;-63
2022/11/25 10:10:06;;;;;;;4.85;2.47;;;18.10;99.90;;;;;;5090574;28;20044;-65
2022/11/25 10:12:38;;;;;;;6.72;2.63;;;17.90;99.90;;;;;;5090725;28;20407;-63
2022/11/25 10:15:17;;;;;;;7.05;2.50;;;18.20;99.90;;;;;;5091754;28;20179;-64
2022/11/25 10:17:48;;;;;;;5.00;2.33;;;18.50;99.90;;;;;;5090910;28;20399;-64
2022/11/25 10:20:20;;;;;;;7.53;2.63;;;19.10;99.90;;;;;;5090000;28;20048;-64
2022/11/25 10:22:50;;;;;;;6.45;2.60;;;18.90;99.90;;;;;;5090888;28;20073;-64
2022/11/25 10:25:19;;;;;;;7.82;2.50;;;19.20;99.90;;;;;;5089973;28;20044;-63
2022/11/25 10:27:50;;;;;;;6.35;2.50;;;19.10;99.90;;;;;;5089310;28;20115;-64
2022/11/25 10:30:21;;;;;;;6.60;2.55;;;19.30;99.90;;;;;;5090365;28;20519;-64
2022/11/25 10:32:53;;;;;;;6.40;2.28;;;19.20;99.90;;;;;;5091572;28;20131;-64
2022/11/25 10:35:28;;;;;;;7.22;2.55;;;19.40;99.90;;;;;;5088438;28;20083;-64
2022/11/25 10:37:57;;;;;;;9.43;2.72;;;18.30;99.90;;;;;;5090551;28;20101;-64
2022/11/25 10:40:24;;;;;;;7.77;3.07;;;17.70;99.90;;;;;;5091216;28;20121;-65
2022/11/25 10:42:51;;;;;;;10.25;3.10;;;17.40;99.90;;;;;;5090222;28;20507;-65
2022/11/25 10:45:22;;;;;;;9.32;2.83;;;18.20;99.90;;;;;;5091191;28;20036;-65
2022/11/25 10:48:09;;;;;;;12.00;2.92;;;18.40;99.90;;;;;;5089804;28;20040;-65
2022/11/25 10:50:50;;;;;;;6.90;3.30;;;18.90;99.90;;;;;;5090676;28;20447;-65
2022/11/25 10:53:20;;;;;;;4.10;2.53;;;19.10;99.90;;;;;;5091428;28;20143;-64
2022/11/25 10:56:00;;;;;;;8.38;2.60;;;19.20;99.90;;;;;;5091596;28;20052;-64
2022/11/25 10:58:31;;;;;;;5.85;2.25;;;19.10;99.90;;;;;;5091732;28;20132;-64
2022/11/25 11:01:24;;;;;;;8.05;2.33;;;19.60;99.90;;;;;;5089918;28;20052;-64
2022/11/25 11:03:54;;;;;;;6.20;2.35;;;19.80;99.90;;;;;;5091124;28;20048;-64
2022/11/25 11:06:31;;;;;;;;;;;19.60;99.90;;;;;;5094797;28;20085;-63
2022/11/25 11:08:58;;;;;;;4.53;2.28;;;19.50;99.60;;;;;;5093548;28;19927;-64
2022/11/25 11:11:25;;;;;;;9.00;2.50;;;20.20;99.90;;;;;;5095129;28;20097;-64
2022/11/25 11:13:59;;;;;;;6.35;2.67;;;20.50;99.90;;;;;;5091889;28;20467;-65
2022/11/25 11:16:36;;;;;;;5.45;2.05;;;20.50;99.30;;;;;;5091639;28;20052;-64
2022/11/25 11:19:04;;;;;;;9.95;2.70;;;20.50;98.20;;;;;;5080013;28;20079;-64
2022/11/25 11:21:33;;;;;;;10.25;2.78;;;20.50;99.10;;;;;;5081688;28;20045;-64
2022/11/25 11:24:01;;;;;;;7.82;2.63;;;20.30;98.90;;;;;;5088557;28;20128;-64
2022/11/25 11:26:30;;;;;;;5.07;2.65;;;19.80;98.50;;;;;;5089677;28;20051;-65
2022/11/25 11:29:04;;;;;;;6.38;2.13;;;19.00;99.60;;;;;;5085725;28;20048;-64
2022/11/25 11:31:38;;;;;;;7.07;2.50;;;19.20;99.90;;;;;;5086465;28;20055;-64
2022/11/25 11:34:30;;;;;;;7.25;2.28;;;18.60;99.90;;;;;;5090669;28;20076;-64
2022/11/25 11:37:16;;;;;;;11.95;3.60;;;18.50;99.90;;;;;;5089355;28;20044;-64
2022/11/25 11:40:18;;;;;;;7.60;2.05;;;19.10;99.90;;;;;;5084991;28;20055;-64
2022/11/25 11:42:54;;;;;;;6.05;2.60;;;19.50;99.90;;;;;;5084065;28;20569;-63
2022/11/25 11:45:37;;;;;;;6.47;2.50;;;19.50;99.90;;;;;;5088198;28;20052;-64
2022/11/25 11:48:12;;;;;;;6.18;2.10;;;19.50;99.10;;;;;;5092506;28;20051;-64
2022/11/25 11:50:45;;;;;;;9.32;3.08;;;19.80;99.10;;;;;;5091472;28;20498;-64
2022/11/25 11:53:22;;;;;;;10.30;2.75;;;19.20;98.90;;;;;;5093673;28;20101;-64
2022/11/25 11:55:58;;;;;;;7.95;2.60;;;18.30;99.90;;;;;;5093524;28;20113;-65
2022/11/25 11:58:41;;;;;;;11.75;2.40;;;17.90;99.90;;;;;;5093071;28;20512;-64
2022/11/25 12:01:27;;;;;;;8.00;2.30;;;18.00;99.90;;;;;;5093501;28;20044;-64
2022/11/25 12:04:00;;;;;;;6.53;2.15;;;18.50;99.90;;;;;;5093816;28;20534;-64
2022/11/25 12:06:31;;;;;;;8.65;2.22;;;19.00;99.90;;;;;;5092813;28;20101;-64
2022/11/25 12:09:02;;;;;;;8.55;2.40;;;19.50;99.90;;;;;;5094143;28;20040;-64
2022/11/25 12:11:35;;;;;;;7.97;2.72;;;19.20;99.90;;;;;;5093682;28;20040;-65
2022/11/25 12:14:07;;;;;;;6.13;2.33;;;19.00;99.90;;;;;;5093000;28;20074;-63
2022/11/25 12:16:41;;;;;;;6.05;2.50;;;19.40;99.90;;;;;;5083655;28;20051;-63
2022/11/25 12:19:17;;;;;;;6.72;2.40;;;19.50;99.90;;;;;;5093198;28;20115;-65
2022/11/25 12:21:52;;;;;;;8.43;2.28;;;20.20;99.30;;;;;;5092792;28;20052;-63
2022/11/25 12:24:26;;;;;;;8.07;3.08;;;20.20;99.30;;;;;;5092717;28;20062;-63
2022/11/25 12:26:58;;;;;;;9.05;2.47;;;20.30;98.90;;;;;;5091965;28;20047;-64
2022/11/25 12:29:33;;;;;;;8.40;2.92;;;20.50;99.80;;;;;;5093473;28;20506;-64
2022/11/25 12:32:15;;;;;;;8.60;2.60;;;20.50;97.70;;;;;;5091146;28;20043;-64
2022/11/25 12:34:50;;;;;;;9.05;2.60;;;19.90;98.20;;;;;;5092343;28;20052;-64
2022/11/25 12:37:27;;;;;;;10.40;2.40;;;18.70;99.80;;;;;;5093432;28;20051;-64
2022/11/25 12:40:02;;;;;;;9.52;2.97;;;18.10;99.90;;;;;;5091722;28;20804;-64
2022/11/25 12:42:33;;;;;;;10.82;2.95;;;18.20;99.90;;;;;;5092207;28;20059;-65
2022/11/25 12:45:04;;;;;;;7.32;2.53;;;18.90;99.90;;;;;;5093062;28;20101;-65
2022/11/25 12:47:32;;;;;;;6.57;2.80;;;19.40;99.90;;;;;;5091667;28;20040;-65
2022/11/25 12:50:00;;;;;;;7.38;2.30;;;19.40;99.90;;;;;;5091820;28;20044;-65
2022/11/25 12:52:45;;;;;;;8.68;2.20;;;20.10;99.90;;;;;;5092505;28;20411;-65
2022/11/25 12:55:17;;;;;;;11.10;3.33;;;20.30;99.70;;;;;;5091732;28;20048;-65
2022/11/25 12:58:18;;;;;;;7.60;2.22;;;20.80;99.70;;;;;;5092264;28;20046;-65
2022/11/25 13:01:24;;;;;;;9.82;2.42;;;21.40;97.70;;;;;;5092025;28;20056;-65
2022/11/25 13:04:37;;;;;;;10.48;2.65;;;21.00;97.00;;;;;;5092065;28;20105;-64
2022/11/25 13:07:23;;;;;;;8.40;2.40;;;21.20;97.20;;;;;;5085715;28;20036;-64
2022/11/25 13:10:21;;;;;;;11.70;2.42;;;20.50;97.40;;;;;;5093082;28;20457;-63
2022/11/25 13:13:02;;;;;;;10.13;2.63;;;19.70;97.70;;;;;;5057158;28;20055;-64
2022/11/25 13:15:31;;;;;;;8.52;2.78;;;18.80;99.90;;;;;;5092028;28;20047;-64
2022/11/25 13:18:02;;;;;;;11.18;3.08;;;18.10;99.90;;;;;;5088226;28;20036;-65
2022/11/25 13:20:36;;;;;;;;;;;17.60;99.90;;;;;;5093375;28;20056;-64